sensor_id;sensor_type;location;lat;lon;timestamp;temperature;humidity
12911;DHT22;6523;49.758;6.120;2024-01-25T00:01:29;8.70;99.90
12911;DHT22;6523;49.758;6.120;2024-01-25T00:03:55;8.70;99.90
12911;DHT22;6523;49.758;6.120;2024-01-25T00:06:20;8.60;99.90
12911;DHT22;6523;49.758;6.120;2024-01-25T00:08:46;8.60;99.90
12911;DHT22;6523;49.758;6.120;2024-01-25T00:11:12;8.50;99.90
12911;DHT22;6523;49.758;6.120;2024-01-25T00:13:37;8.50;99.90
12911;DHT22;6523;49.758;6.120;2024-01-25T00:16:04;8.60;99.90
12911;DHT22;6523;49.758;6.120;2024-01-25T00:18:30;8.50;99.90
12911;DHT22;6523;49.758;6.120;2024-01-25T00:20:55;8.50;99.90
12911;DHT22;6523;49.758;6.120;2024-01-25T00:23:21;8.50;99.90
12911;DHT22;6523;49.758;6.120;2024-01-25T00:25:47;8.50;99.90
12911;DHT22;6523;49.758;6.120;2024-01-25T00:28:12;8.40;99.90
12911;DHT22;6523;49.758;6.120;2024-01-25T00:30:39;8.30;99.90
12911;DHT22;6523;49.758;6.120;2024-01-25T00:33:04;8.30;99.90
12911;DHT22;6523;49.758;6.120;2024-01-25T00:35:30;8.30;99.90
12911;DHT22;6523;49.758;6.120;2024-01-25T00:37:56;8.30;99.90
12911;DHT22;6523;49.758;6.120;2024-01-25T00:40:22;8.20;99.90
12911;DHT22;6523;49.758;6.120;2024-01-25T00:42:48;8.20;99.90
12911;DHT22;6523;49.758;6.120;2024-01-25T00:45:19;8.10;99.90
12911;DHT22;6523;49.758;6.120;2024-01-25T00:47:45;8.10;99.90
12911;DHT22;6523;49.758;6.120;2024-01-25T00:50:11;8.00;99.90
12911;DHT22;6523;49.758;6.120;2024-01-25T00:52:37;8.00;99.90
12911;DHT22;6523;49.758;6.120;2024-01-25T00:55:03;7.90;99.90
12911;DHT22;6523;49.758;6.120;2024-01-25T00:57:29;7.80;99.90
12911;DHT22;6523;49.758;6.120;2024-01-25T00:59:55;7.90;99.90
12911;DHT22;6523;49.758;6.120;2024-01-25T01:02:22;7.90;99.90
12911;DHT22;6523;49.758;6.120;2024-01-25T01:04:48;7.90;99.90
12911;DHT22;6523;49.758;6.120;2024-01-25T01:07:13;7.90;99.90
12911;DHT22;6523;49.758;6.120;2024-01-25T01:09:39;7.90;99.90
12911;DHT22;6523;49.758;6.120;2024-01-25T01:12:06;7.80;99.90
12911;DHT22;6523;49.758;6.120;2024-01-25T01:14:31;7.60;99.90
12911;DHT22;6523;49.758;6.120;2024-01-25T01:16:57;7.40;99.90
12911;DHT22;6523;49.758;6.120;2024-01-25T01:19:22;7.30;99.90
12911;DHT22;6523;49.758;6.120;2024-01-25T01:21:48;6.90;99.90
12911;DHT22;6523;49.758;6.120;2024-01-25T01:24:14;6.80;99.90
12911;DHT22;6523;49.758;6.120;2024-01-25T01:26:39;6.80;99.90
12911;DHT22;6523;49.758;6.120;2024-01-25T01:29:07;6.60;99.90
12911;DHT22;6523;49.758;6.120;2024-01-25T01:31:33;6.70;99.90
12911;DHT22;6523;49.758;6.120;2024-01-25T01:33:59;6.50;99.90
12911;DHT22;6523;49.758;6.120;2024-01-25T01:36:24;6.60;99.90
12911;DHT22;6523;49.758;6.120;2024-01-25T01:38:50;6.60;99.90
12911;DHT22;6523;49.758;6.120;2024-01-25T01:41:16;6.60;99.90
12911;DHT22;6523;49.758;6.120;2024-01-25T01:43:41;6.30;99.90
12911;DHT22;6523;49.758;6.120;2024-01-25T01:46:17;6.10;99.90
12911;DHT22;6523;49.758;6.120;2024-01-25T01:48:46;6.30;99.90
12911;DHT22;6523;49.758;6.120;2024-01-25T01:51:11;6.40;99.90
12911;DHT22;6523;49.758;6.120;2024-01-25T01:53:37;6.40;99.90
12911;DHT22;6523;49.758;6.120;2024-01-25T01:56:03;6.20;99.90
12911;DHT22;6523;49.758;6.120;2024-01-25T01:58:30;6.20;99.90
12911;DHT22;6523;49.758;6.120;2024-01-25T02:00:56;6.30;99.90
12911;DHT22;6523;49.758;6.120;2024-01-25T02:03:23;6.30;99.90
12911;DHT22;6523;49.758;6.120;2024-01-25T02:05:49;6.10;99.90
12911;DHT22;6523;49.758;6.120;2024-01-25T02:08:14;6.20;99.90
12911;DHT22;6523;49.758;6.120;2024-01-25T02:10:40;6.20;99.90
12911;DHT22;6523;49.758;6.120;2024-01-25T02:13:06;6.30;99.90
12911;DHT22;6523;49.758;6.120;2024-01-25T02:15:31;6.20;99.90
12911;DHT22;6523;49.758;6.120;2024-01-25T02:17:57;5.90;99.90
12911;DHT22;6523;49.758;6.120;2024-01-25T02:20:23;6.00;99.90
12911;DHT22;6523;49.758;6.120;2024-01-25T02:22:48;6.00;99.90
12911;DHT22;6523;49.758;6.120;2024-01-25T02:25:14;6.10;99.90
12911;DHT22;6523;49.758;6.120;2024-01-25T02:27:39;6.20;99.90
12911;DHT22;6523;49.758;6.120;2024-01-25T02:30:06;6.00;99.90
12911;DHT22;6523;49.758;6.120;2024-01-25T02:32:32;6.10;99.90
12911;DHT22;6523;49.758;6.120;2024-01-25T02:34:57;6.10;99.90
12911;DHT22;6523;49.758;6.120;2024-01-25T02:37:53;6.00;99.90
12911;DHT22;6523;49.758;6.120;2024-01-25T02:40:18;6.00;99.90
12911;DHT22;6523;49.758;6.120;2024-01-25T02:42:44;6.00;99.90
12911;DHT22;6523;49.758;6.120;2024-01-25T02:45:10;6.00;99.90
12911;DHT22;6523;49.758;6.120;2024-01-25T02:47:35;6.10;99.90
12911;DHT22;6523;49.758;6.120;2024-01-25T02:50:01;6.20;99.90
12911;DHT22;6523;49.758;6.120;2024-01-25T02:52:26;6.20;99.90
12911;DHT22;6523;49.758;6.120;2024-01-25T02:54:52;6.20;99.90
12911;DHT22;6523;49.758;6.120;2024-01-25T02:57:18;6.00;99.90
12911;DHT22;6523;49.758;6.120;2024-01-25T02:59:43;5.90;99.90
12911;DHT22;6523;49.758;6.120;2024-01-25T03:02:09;6.00;99.90
12911;DHT22;6523;49.758;6.120;2024-01-25T03:04:35;6.10;99.90
12911;DHT22;6523;49.758;6.120;2024-01-25T03:07:00;6.10;99.90
12911;DHT22;6523;49.758;6.120;2024-01-25T03:09:26;5.80;99.90
12911;DHT22;6523;49.758;6.120;2024-01-25T03:11:52;5.70;99.90
12911;DHT22;6523;49.758;6.120;2024-01-25T03:14:18;5.70;99.90
12911;DHT22;6523;49.758;6.120;2024-01-25T03:16:43;5.60;99.90
12911;DHT22;6523;49.758;6.120;2024-01-25T03:19:10;5.50;99.90
12911;DHT22;6523;49.758;6.120;2024-01-25T03:21:35;5.50;99.90
12911;DHT22;6523;49.758;6.120;2024-01-25T03:24:01;5.40;99.90
12911;DHT22;6523;49.758;6.120;2024-01-25T03:26:27;5.40;99.90
12911;DHT22;6523;49.758;6.120;2024-01-25T03:28:53;5.40;99.90
12911;DHT22;6523;49.758;6.120;2024-01-25T03:31:18;5.30;99.90
12911;DHT22;6523;49.758;6.120;2024-01-25T03:33:44;5.20;99.90
12911;DHT22;6523;49.758;6.120;2024-01-25T03:36:13;5.30;99.90
12911;DHT22;6523;49.758;6.120;2024-01-25T03:38:39;5.10;99.90
12911;DHT22;6523;49.758;6.120;2024-01-25T03:41:05;5.20;99.90
12911;DHT22;6523;49.758;6.120;2024-01-25T03:43:30;5.40;99.90
12911;DHT22;6523;49.758;6.120;2024-01-25T03:45:56;5.20;99.90
12911;DHT22;6523;49.758;6.120;2024-01-25T03:48:21;4.70;99.90
12911;DHT22;6523;49.758;6.120;2024-01-25T03:50:47;4.80;99.90
12911;DHT22;6523;49.758;6.120;2024-01-25T03:53:13;4.90;99.90
12911;DHT22;6523;49.758;6.120;2024-01-25T03:55:38;5.10;99.90
12911;DHT22;6523;49.758;6.120;2024-01-25T03:58:04;5.10;99.90
12911;DHT22;6523;49.758;6.120;2024-01-25T04:00:30;4.60;99.90
12911;DHT22;6523;49.758;6.120;2024-01-25T04:02:55;4.60;99.90
12911;DHT22;6523;49.758;6.120;2024-01-25T04:05:21;4.60;99.90
12911;DHT22;6523;49.758;6.120;2024-01-25T04:07:46;4.70;99.90
12911;DHT22;6523;49.758;6.120;2024-01-25T04:10:12;4.90;99.90
12911;DHT22;6523;49.758;6.120;2024-01-25T04:12:37;4.90;99.90
12911;DHT22;6523;49.758;6.120;2024-01-25T04:15:05;4.80;99.90
12911;DHT22;6523;49.758;6.120;2024-01-25T04:17:31;4.20;99.90
12911;DHT22;6523;49.758;6.120;2024-01-25T04:19:56;4.40;99.90
12911;DHT22;6523;49.758;6.120;2024-01-25T04:22:22;4.60;99.90
12911;DHT22;6523;49.758;6.120;2024-01-25T04:24:47;4.60;99.90
12911;DHT22;6523;49.758;6.120;2024-01-25T04:27:14;4.00;99.90
12911;DHT22;6523;49.758;6.120;2024-01-25T04:29:40;4.10;99.90
12911;DHT22;6523;49.758;6.120;2024-01-25T04:32:09;4.20;99.90
12911;DHT22;6523;49.758;6.120;2024-01-25T04:34:35;4.40;99.90
12911;DHT22;6523;49.758;6.120;2024-01-25T04:37:01;4.30;99.90
12911;DHT22;6523;49.758;6.120;2024-01-25T04:39:27;4.10;99.90
12911;DHT22;6523;49.758;6.120;2024-01-25T04:41:52;4.10;99.90
12911;DHT22;6523;49.758;6.120;2024-01-25T04:44:18;4.20;99.90
12911;DHT22;6523;49.758;6.120;2024-01-25T04:46:44;4.30;99.90
12911;DHT22;6523;49.758;6.120;2024-01-25T04:49:09;4.30;99.90
12911;DHT22;6523;49.758;6.120;2024-01-25T04:51:35;4.20;99.90
12911;DHT22;6523;49.758;6.120;2024-01-25T04:54:01;4.10;99.90
12911;DHT22;6523;49.758;6.120;2024-01-25T04:56:26;3.90;99.90
12911;DHT22;6523;49.758;6.120;2024-01-25T04:58:52;4.10;99.90
12911;DHT22;6523;49.758;6.120;2024-01-25T05:01:17;4.00;99.90
12911;DHT22;6523;49.758;6.120;2024-01-25T05:03:43;3.90;99.90
12911;DHT22;6523;49.758;6.120;2024-01-25T05:06:09;3.40;99.90
12911;DHT22;6523;49.758;6.120;2024-01-25T05:08:34;3.70;99.90
12911;DHT22;6523;49.758;6.120;2024-01-25T05:11:00;3.90;99.90
12911;DHT22;6523;49.758;6.120;2024-01-25T05:13:25;3.70;99.90
12911;DHT22;6523;49.758;6.120;2024-01-25T05:15:51;3.20;99.90
12911;DHT22;6523;49.758;6.120;2024-01-25T05:18:16;3.40;99.90
12911;DHT22;6523;49.758;6.120;2024-01-25T05:20:42;3.60;99.90
12911;DHT22;6523;49.758;6.120;2024-01-25T05:23:08;3.70;99.90
12911;DHT22;6523;49.758;6.120;2024-01-25T05:25:33;3.90;99.90
12911;DHT22;6523;49.758;6.120;2024-01-25T05:27:59;3.60;99.90
12911;DHT22;6523;49.758;6.120;2024-01-25T05:30:25;3.90;99.90
12911;DHT22;6523;49.758;6.120;2024-01-25T05:32:51;4.00;99.90
12911;DHT22;6523;49.758;6.120;2024-01-25T05:35:18;4.10;99.90
12911;DHT22;6523;49.758;6.120;2024-01-25T05:37:44;3.90;99.90
12911;DHT22;6523;49.758;6.120;2024-01-25T05:40:10;3.90;99.90
12911;DHT22;6523;49.758;6.120;2024-01-25T05:42:36;4.10;99.90
12911;DHT22;6523;49.758;6.120;2024-01-25T05:45:05;4.20;99.90
12911;DHT22;6523;49.758;6.120;2024-01-25T05:47:31;4.10;99.90
12911;DHT22;6523;49.758;6.120;2024-01-25T05:49:57;3.60;99.90
12911;DHT22;6523;49.758;6.120;2024-01-25T05:52:23;3.60;99.90
12911;DHT22;6523;49.758;6.120;2024-01-25T05:54:49;3.90;99.90
12911;DHT22;6523;49.758;6.120;2024-01-25T05:57:15;4.20;99.90
12911;DHT22;6523;49.758;6.120;2024-01-25T05:59:41;4.10;99.90
12911;DHT22;6523;49.758;6.120;2024-01-25T06:02:06;4.00;99.90
12911;DHT22;6523;49.758;6.120;2024-01-25T06:04:33;3.90;99.90
12911;DHT22;6523;49.758;6.120;2024-01-25T06:06:59;4.00;99.90
12911;DHT22;6523;49.758;6.120;2024-01-25T06:09:25;3.80;99.90
12911;DHT22;6523;49.758;6.120;2024-01-25T06:11:50;3.70;99.90
12911;DHT22;6523;49.758;6.120;2024-01-25T06:14:16;3.70;99.90
12911;DHT22;6523;49.758;6.120;2024-01-25T06:16:42;3.90;99.90
12911;DHT22;6523;49.758;6.120;2024-01-25T06:19:08;3.50;99.90
12911;DHT22;6523;49.758;6.120;2024-01-25T06:21:33;3.30;99.90
12911;DHT22;6523;49.758;6.120;2024-01-25T06:24:01;3.20;99.90
12911;DHT22;6523;49.758;6.120;2024-01-25T06:26:27;3.20;99.90
12911;DHT22;6523;49.758;6.120;2024-01-25T06:28:52;3.10;99.90
12911;DHT22;6523;49.758;6.120;2024-01-25T06:31:18;3.10;99.90
12911;DHT22;6523;49.758;6.120;2024-01-25T06:33:44;3.00;99.90
12911;DHT22;6523;49.758;6.120;2024-01-25T06:36:12;2.90;99.90
12911;DHT22;6523;49.758;6.120;2024-01-25T06:38:40;2.90;99.90
12911;DHT22;6523;49.758;6.120;2024-01-25T06:41:05;2.80;99.90
12911;DHT22;6523;49.758;6.120;2024-01-25T06:43:31;2.90;99.90
12911;DHT22;6523;49.758;6.120;2024-01-25T06:45:57;2.70;99.90
12911;DHT22;6523;49.758;6.120;2024-01-25T06:48:22;2.70;99.90
12911;DHT22;6523;49.758;6.120;2024-01-25T06:50:48;2.80;99.90
12911;DHT22;6523;49.758;6.120;2024-01-25T06:53:16;2.80;99.90
12911;DHT22;6523;49.758;6.120;2024-01-25T06:55:41;2.90;99.90
12911;DHT22;6523;49.758;6.120;2024-01-25T06:58:07;2.90;99.90
12911;DHT22;6523;49.758;6.120;2024-01-25T07:00:32;3.00;99.90
12911;DHT22;6523;49.758;6.120;2024-01-25T07:02:58;3.00;99.90
12911;DHT22;6523;49.758;6.120;2024-01-25T07:05:23;2.90;99.90
12911;DHT22;6523;49.758;6.120;2024-01-25T07:07:49;2.80;99.90
12911;DHT22;6523;49.758;6.120;2024-01-25T07:10:15;2.80;99.90
12911;DHT22;6523;49.758;6.120;2024-01-25T07:12:41;2.60;99.90
12911;DHT22;6523;49.758;6.120;2024-01-25T07:15:06;2.60;99.90
12911;DHT22;6523;49.758;6.120;2024-01-25T07:17:32;2.70;99.90
12911;DHT22;6523;49.758;6.120;2024-01-25T07:19:58;2.80;99.90
12911;DHT22;6523;49.758;6.120;2024-01-25T07:22:23;2.80;99.90
12911;DHT22;6523;49.758;6.120;2024-01-25T07:24:49;2.80;99.90
12911;DHT22;6523;49.758;6.120;2024-01-25T07:27:15;2.40;99.90
12911;DHT22;6523;49.758;6.120;2024-01-25T07:29:43;2.40;99.90
12911;DHT22;6523;49.758;6.120;2024-01-25T07:32:10;2.60;99.90
12911;DHT22;6523;49.758;6.120;2024-01-25T07:34:36;2.80;99.90
12911;DHT22;6523;49.758;6.120;2024-01-25T07:37:02;2.70;99.90
12911;DHT22;6523;49.758;6.120;2024-01-25T07:39:28;2.50;99.90
12911;DHT22;6523;49.758;6.120;2024-01-25T07:41:53;2.50;99.90
12911;DHT22;6523;49.758;6.120;2024-01-25T07:44:19;2.40;99.90
12911;DHT22;6523;49.758;6.120;2024-01-25T07:46:45;2.50;99.90
12911;DHT22;6523;49.758;6.120;2024-01-25T07:49:10;2.50;99.90
12911;DHT22;6523;49.758;6.120;2024-01-25T07:51:36;2.40;99.90
12911;DHT22;6523;49.758;6.120;2024-01-25T07:54:01;2.40;99.90
12911;DHT22;6523;49.758;6.120;2024-01-25T07:56:27;2.60;99.90
12911;DHT22;6523;49.758;6.120;2024-01-25T07:58:53;2.70;99.90
12911;DHT22;6523;49.758;6.120;2024-01-25T08:01:20;2.80;99.90
12911;DHT22;6523;49.758;6.120;2024-01-25T08:03:46;2.80;99.90
12911;DHT22;6523;49.758;6.120;2024-01-25T08:06:12;2.70;99.90
12911;DHT22;6523;49.758;6.120;2024-01-25T08:08:37;2.60;99.90
12911;DHT22;6523;49.758;6.120;2024-01-25T08:11:03;2.80;99.90
12911;DHT22;6523;49.758;6.120;2024-01-25T08:13:31;2.90;99.90
12911;DHT22;6523;49.758;6.120;2024-01-25T08:15:57;3.00;99.90
12911;DHT22;6523;49.758;6.120;2024-01-25T08:18:23;3.00;99.90
12911;DHT22;6523;49.758;6.120;2024-01-25T08:20:49;3.00;99.90
12911;DHT22;6523;49.758;6.120;2024-01-25T08:23:15;2.80;99.90
12911;DHT22;6523;49.758;6.120;2024-01-25T08:25:41;2.80;99.90
12911;DHT22;6523;49.758;6.120;2024-01-25T08:28:07;2.90;99.90
12911;DHT22;6523;49.758;6.120;2024-01-25T08:30:33;3.00;99.90
12911;DHT22;6523;49.758;6.120;2024-01-25T08:32:58;3.00;99.90
12911;DHT22;6523;49.758;6.120;2024-01-25T08:35:24;3.10;99.90
12911;DHT22;6523;49.758;6.120;2024-01-25T08:37:50;3.10;99.90
12911;DHT22;6523;49.758;6.120;2024-01-25T08:40:16;3.10;99.90
12911;DHT22;6523;49.758;6.120;2024-01-25T08:42:42;3.10;99.90
12911;DHT22;6523;49.758;6.120;2024-01-25T08:45:07;3.20;99.90
12911;DHT22;6523;49.758;6.120;2024-01-25T08:47:35;3.20;99.90
12911;DHT22;6523;49.758;6.120;2024-01-25T08:50:00;3.30;99.90
12911;DHT22;6523;49.758;6.120;2024-01-25T08:52:26;3.30;99.90
12911;DHT22;6523;49.758;6.120;2024-01-25T08:54:52;3.30;99.90
12911;DHT22;6523;49.758;6.120;2024-01-25T08:57:18;3.40;99.90
12911;DHT22;6523;49.758;6.120;2024-01-25T08:59:43;3.50;99.90
12911;DHT22;6523;49.758;6.120;2024-01-25T09:02:09;3.50;99.90
12911;DHT22;6523;49.758;6.120;2024-01-25T09:04:35;3.60;99.90
12911;DHT22;6523;49.758;6.120;2024-01-25T09:07:02;3.70;99.90
12911;DHT22;6523;49.758;6.120;2024-01-25T09:09:28;3.80;99.90
12911;DHT22;6523;49.758;6.120;2024-01-25T09:11:53;4.00;99.90
12911;DHT22;6523;49.758;6.120;2024-01-25T09:14:19;4.30;99.90
12911;DHT22;6523;49.758;6.120;2024-01-25T09:16:45;4.40;99.90
12911;DHT22;6523;49.758;6.120;2024-01-25T09:19:11;4.80;99.90
12911;DHT22;6523;49.758;6.120;2024-01-25T09:21:38;5.00;99.90
12911;DHT22;6523;49.758;6.120;2024-01-25T09:24:05;5.20;99.90
12911;DHT22;6523;49.758;6.120;2024-01-25T09:26:31;5.20;99.90
12911;DHT22;6523;49.758;6.120;2024-01-25T09:28:57;5.30;99.90
12911;DHT22;6523;49.758;6.120;2024-01-25T09:31:23;5.40;99.90
12911;DHT22;6523;49.758;6.120;2024-01-25T09:33:48;5.40;99.90
12911;DHT22;6523;49.758;6.120;2024-01-25T09:36:15;5.50;99.90
12911;DHT22;6523;49.758;6.120;2024-01-25T09:38:41;5.40;99.90
12911;DHT22;6523;49.758;6.120;2024-01-25T09:41:06;5.40;99.90
12911;DHT22;6523;49.758;6.120;2024-01-25T09:43:32;5.60;99.90
12911;DHT22;6523;49.758;6.120;2024-01-25T09:46:00;5.50;99.90
12911;DHT22;6523;49.758;6.120;2024-01-25T09:48:26;5.50;99.90
12911;DHT22;6523;49.758;6.120;2024-01-25T09:50:55;5.60;99.90
12911;DHT22;6523;49.758;6.120;2024-01-25T09:53:21;5.80;99.90
12911;DHT22;6523;49.758;6.120;2024-01-25T09:56:11;5.90;99.90
12911;DHT22;6523;49.758;6.120;2024-01-25T09:58:39;6.00;99.90
12911;DHT22;6523;49.758;6.120;2024-01-25T10:01:09;5.90;99.90
12911;DHT22;6523;49.758;6.120;2024-01-25T10:03:39;6.00;99.90
12911;DHT22;6523;49.758;6.120;2024-01-25T10:06:08;6.00;99.90
12911;DHT22;6523;49.758;6.120;2024-01-25T10:08:34;6.10;99.90
12911;DHT22;6523;49.758;6.120;2024-01-25T10:10:59;6.10;99.90
12911;DHT22;6523;49.758;6.120;2024-01-25T10:13:26;6.20;99.90
12911;DHT22;6523;49.758;6.120;2024-01-25T10:15:53;6.30;99.90
12911;DHT22;6523;49.758;6.120;2024-01-25T10:18:19;6.40;99.90
12911;DHT22;6523;49.758;6.120;2024-01-25T10:20:45;6.50;99.90
12911;DHT22;6523;49.758;6.120;2024-01-25T10:23:10;6.40;99.90
12911;DHT22;6523;49.758;6.120;2024-01-25T10:25:36;6.60;99.90
12911;DHT22;6523;49.758;6.120;2024-01-25T10:28:06;6.60;99.90
12911;DHT22;6523;49.758;6.120;2024-01-25T10:30:32;6.70;99.90
12911;DHT22;6523;49.758;6.120;2024-01-25T10:32:59;6.60;99.90
12911;DHT22;6523;49.758;6.120;2024-01-25T10:35:25;6.70;99.90
12911;DHT22;6523;49.758;6.120;2024-01-25T10:37:52;6.70;99.90
12911;DHT22;6523;49.758;6.120;2024-01-25T10:40:21;6.80;99.90
12911;DHT22;6523;49.758;6.120;2024-01-25T10:42:47;6.90;99.90
12911;DHT22;6523;49.758;6.120;2024-01-25T10:45:13;6.90;99.90
12911;DHT22;6523;49.758;6.120;2024-01-25T10:47:39;7.20;99.90
12911;DHT22;6523;49.758;6.120;2024-01-25T10:50:12;7.10;99.90
12911;DHT22;6523;49.758;6.120;2024-01-25T10:52:40;7.20;99.90
12911;DHT22;6523;49.758;6.120;2024-01-25T10:55:06;7.30;99.90
12911;DHT22;6523;49.758;6.120;2024-01-25T10:57:43;7.30;99.90
12911;DHT22;6523;49.758;6.120;2024-01-25T11:00:11;7.30;99.90
12911;DHT22;6523;49.758;6.120;2024-01-25T11:02:38;7.30;99.90
12911;DHT22;6523;49.758;6.120;2024-01-25T11:05:14;7.50;99.90
12911;DHT22;6523;49.758;6.120;2024-01-25T11:07:50;7.50;99.90
12911;DHT22;6523;49.758;6.120;2024-01-25T11:10:21;7.50;99.90
12911;DHT22;6523;49.758;6.120;2024-01-25T11:15:21;7.70;99.90
12911;DHT22;6523;49.758;6.120;2024-01-25T11:17:52;7.60;99.90
12911;DHT22;6523;49.758;6.120;2024-01-25T11:20:21;7.70;99.90
12911;DHT22;6523;49.758;6.120;2024-01-25T11:22:46;7.90;99.90
12911;DHT22;6523;49.758;6.120;2024-01-25T11:25:31;7.80;99.90
12911;DHT22;6523;49.758;6.120;2024-01-25T11:27:58;8.00;99.90
12911;DHT22;6523;49.758;6.120;2024-01-25T11:30:25;7.90;99.90
12911;DHT22;6523;49.758;6.120;2024-01-25T11:32:51;7.80;99.90
12911;DHT22;6523;49.758;6.120;2024-01-25T11:35:17;7.80;99.90
12911;DHT22;6523;49.758;6.120;2024-01-25T11:37:46;7.80;99.90
12911;DHT22;6523;49.758;6.120;2024-01-25T11:40:13;7.90;99.90
12911;DHT22;6523;49.758;6.120;2024-01-25T11:42:39;8.00;99.90
12911;DHT22;6523;49.758;6.120;2024-01-25T11:45:08;8.00;99.90
12911;DHT22;6523;49.758;6.120;2024-01-25T11:47:35;8.10;99.90
12911;DHT22;6523;49.758;6.120;2024-01-25T11:50:01;8.20;99.90
12911;DHT22;6523;49.758;6.120;2024-01-25T11:52:27;8.10;99.90
12911;DHT22;6523;49.758;6.120;2024-01-25T11:54:53;8.10;99.90
12911;DHT22;6523;49.758;6.120;2024-01-25T11:57:19;8.10;99.90
12911;DHT22;6523;49.758;6.120;2024-01-25T11:59:46;8.10;99.90
12911;DHT22;6523;49.758;6.120;2024-01-25T12:02:15;8.10;99.90
12911;DHT22;6523;49.758;6.120;2024-01-25T12:04:41;8.10;99.90
12911;DHT22;6523;49.758;6.120;2024-01-25T12:07:07;8.20;99.90
12911;DHT22;6523;49.758;6.120;2024-01-25T12:09:33;8.20;99.90
12911;DHT22;6523;49.758;6.120;2024-01-25T12:12:00;8.30;99.90
12911;DHT22;6523;49.758;6.120;2024-01-25T12:14:27;8.10;99.90
12911;DHT22;6523;49.758;6.120;2024-01-25T12:16:55;8.20;99.90
12911;DHT22;6523;49.758;6.120;2024-01-25T12:19:20;8.30;99.90
12911;DHT22;6523;49.758;6.120;2024-01-25T12:21:47;8.40;99.90
12911;DHT22;6523;49.758;6.120;2024-01-25T12:24:13;8.50;99.90
12911;DHT22;6523;49.758;6.120;2024-01-25T12:26:38;8.50;99.90
12911;DHT22;6523;49.758;6.120;2024-01-25T12:29:04;8.40;99.90
12911;DHT22;6523;49.758;6.120;2024-01-25T12:31:30;8.40;99.90
12911;DHT22;6523;49.758;6.120;2024-01-25T12:33:56;8.50;99.90
12911;DHT22;6523;49.758;6.120;2024-01-25T12:36:22;8.40;99.90
12911;DHT22;6523;49.758;6.120;2024-01-25T12:38:48;8.40;99.90
12911;DHT22;6523;49.758;6.120;2024-01-25T12:41:14;8.50;99.90
12911;DHT22;6523;49.758;6.120;2024-01-25T12:43:40;8.70;99.90
12911;DHT22;6523;49.758;6.120;2024-01-25T12:46:06;8.80;99.90
12911;DHT22;6523;49.758;6.120;2024-01-25T12:48:31;8.80;99.90
12911;DHT22;6523;49.758;6.120;2024-01-25T12:50:57;8.90;99.90
12911;DHT22;6523;49.758;6.120;2024-01-25T12:53:23;8.90;99.90
12911;DHT22;6523;49.758;6.120;2024-01-25T12:55:48;8.90;99.90
12911;DHT22;6523;49.758;6.120;2024-01-25T12:58:14;8.90;99.90
12911;DHT22;6523;49.758;6.120;2024-01-25T13:00:39;9.00;99.90
12911;DHT22;6523;49.758;6.120;2024-01-25T13:03:05;9.00;99.90
12911;DHT22;6523;49.758;6.120;2024-01-25T13:05:31;8.90;99.90
12911;DHT22;6523;49.758;6.120;2024-01-25T13:08:00;9.10;99.90
12911;DHT22;6523;49.758;6.120;2024-01-25T13:10:26;9.20;99.90
12911;DHT22;6523;49.758;6.120;2024-01-25T13:12:52;9.20;99.90
12911;DHT22;6523;49.758;6.120;2024-01-25T13:15:17;9.10;99.90
12911;DHT22;6523;49.758;6.120;2024-01-25T13:17:43;9.10;99.90
12911;DHT22;6523;49.758;6.120;2024-01-25T13:20:09;9.00;99.90
12911;DHT22;6523;49.758;6.120;2024-01-25T13:22:35;9.10;99.90
12911;DHT22;6523;49.758;6.120;2024-01-25T13:25:01;9.00;99.90
12911;DHT22;6523;49.758;6.120;2024-01-25T13:27:27;9.10;99.90
12911;DHT22;6523;49.758;6.120;2024-01-25T13:29:53;9.10;99.90
12911;DHT22;6523;49.758;6.120;2024-01-25T13:32:19;9.10;99.90
12911;DHT22;6523;49.758;6.120;2024-01-25T13:34:45;9.10;99.90
12911;DHT22;6523;49.758;6.120;2024-01-25T13:37:11;9.00;99.90
12911;DHT22;6523;49.758;6.120;2024-01-25T13:39:36;9.00;99.90
12911;DHT22;6523;49.758;6.120;2024-01-25T13:42:02;9.10;99.90
12911;DHT22;6523;49.758;6.120;2024-01-25T13:44:27;9.20;99.90
12911;DHT22;6523;49.758;6.120;2024-01-25T13:46:53;9.20;99.90
12911;DHT22;6523;49.758;6.120;2024-01-25T13:49:21;9.10;99.90
12911;DHT22;6523;49.758;6.120;2024-01-25T13:51:47;9.20;99.90
12911;DHT22;6523;49.758;6.120;2024-01-25T13:54:12;9.20;99.90
12911;DHT22;6523;49.758;6.120;2024-01-25T13:56:38;9.10;99.90
12911;DHT22;6523;49.758;6.120;2024-01-25T13:59:05;9.20;99.90
12911;DHT22;6523;49.758;6.120;2024-01-25T14:01:31;9.10;99.90
12911;DHT22;6523;49.758;6.120;2024-01-25T14:03:56;9.10;99.90
12911;DHT22;6523;49.758;6.120;2024-01-25T14:06:22;9.10;99.90
12911;DHT22;6523;49.758;6.120;2024-01-25T14:08:47;9.10;99.90
12911;DHT22;6523;49.758;6.120;2024-01-25T14:11:13;9.10;99.90
12911;DHT22;6523;49.758;6.120;2024-01-25T14:13:38;9.10;99.90
12911;DHT22;6523;49.758;6.120;2024-01-25T14:16:04;9.10;99.90
12911;DHT22;6523;49.758;6.120;2024-01-25T14:18:37;9.10;99.90
12911;DHT22;6523;49.758;6.120;2024-01-25T14:21:03;9.00;99.90
12911;DHT22;6523;49.758;6.120;2024-01-25T14:23:29;9.10;99.90
12911;DHT22;6523;49.758;6.120;2024-01-25T14:25:55;9.10;99.90
12911;DHT22;6523;49.758;6.120;2024-01-25T14:28:20;9.10;99.90
12911;DHT22;6523;49.758;6.120;2024-01-25T14:30:46;9.10;99.90
12911;DHT22;6523;49.758;6.120;2024-01-25T14:33:12;9.10;99.90
12911;DHT22;6523;49.758;6.120;2024-01-25T14:35:38;9.00;99.90
12911;DHT22;6523;49.758;6.120;2024-01-25T14:38:03;9.00;99.90
12911;DHT22;6523;49.758;6.120;2024-01-25T14:40:29;9.00;99.90
12911;DHT22;6523;49.758;6.120;2024-01-25T14:42:54;9.10;99.90
12911;DHT22;6523;49.758;6.120;2024-01-25T14:45:20;9.00;99.90
12911;DHT22;6523;49.758;6.120;2024-01-25T14:47:45;9.00;99.90
12911;DHT22;6523;49.758;6.120;2024-01-25T14:50:11;9.10;99.90
12911;DHT22;6523;49.758;6.120;2024-01-25T14:52:37;9.10;99.90
12911;DHT22;6523;49.758;6.120;2024-01-25T14:55:05;9.00;99.90
12911;DHT22;6523;49.758;6.120;2024-01-25T14:57:31;9.10;99.90
12911;DHT22;6523;49.758;6.120;2024-01-25T14:59:57;9.10;99.90
12911;DHT22;6523;49.758;6.120;2024-01-25T15:02:22;9.10;99.90
12911;DHT22;6523;49.758;6.120;2024-01-25T15:04:48;9.10;99.90
12911;DHT22;6523;49.758;6.120;2024-01-25T15:07:13;9.10;99.90
12911;DHT22;6523;49.758;6.120;2024-01-25T15:09:40;9.10;99.90
12911;DHT22;6523;49.758;6.120;2024-01-25T15:12:07;9.00;99.90
12911;DHT22;6523;49.758;6.120;2024-01-25T15:14:33;9.00;99.90
12911;DHT22;6523;49.758;6.120;2024-01-25T15:16:58;9.00;99.90
12911;DHT22;6523;49.758;6.120;2024-01-25T15:19:24;9.00;99.90
12911;DHT22;6523;49.758;6.120;2024-01-25T15:21:49;9.00;99.90
12911;DHT22;6523;49.758;6.120;2024-01-25T15:24:15;9.00;99.90
12911;DHT22;6523;49.758;6.120;2024-01-25T15:26:41;9.00;99.90
12911;DHT22;6523;49.758;6.120;2024-01-25T15:29:07;9.00;99.90
12911;DHT22;6523;49.758;6.120;2024-01-25T15:31:33;9.00;99.90
12911;DHT22;6523;49.758;6.120;2024-01-25T15:33:58;9.00;99.90
12911;DHT22;6523;49.758;6.120;2024-01-25T15:36:24;9.00;99.90
12911;DHT22;6523;49.758;6.120;2024-01-25T15:38:49;9.00;99.90
12911;DHT22;6523;49.758;6.120;2024-01-25T15:41:16;9.00;99.90
12911;DHT22;6523;49.758;6.120;2024-01-25T15:43:44;9.00;99.90
12911;DHT22;6523;49.758;6.120;2024-01-25T15:46:09;9.00;99.90
12911;DHT22;6523;49.758;6.120;2024-01-25T15:48:35;9.00;99.90
12911;DHT22;6523;49.758;6.120;2024-01-25T15:51:01;9.00;99.90
12911;DHT22;6523;49.758;6.120;2024-01-25T15:53:26;9.00;99.90
12911;DHT22;6523;49.758;6.120;2024-01-25T15:55:52;9.00;99.90
12911;DHT22;6523;49.758;6.120;2024-01-25T15:58:17;9.00;99.90